Time,TemperatureF,DewpointF,PressureIn,WindDirection,WindDirectionDegrees,WindSpeedMPH,WindSpeedGustMPH,Humidity,HourlyPrecipIn,Conditions,Clouds,dailyrainin,SoftwareType,DateUTC
2013-06-08 00:01:00,64.6,64.0,29.82,ENE,68,0.0,-999.0,98,0.11,,,0.23,Wunderground v.1.15,2013-06-08 04:01:00,
2013-06-08 00:06:00,64.6,64.0,29.82,ENE,68,0.0,-999.0,98,0.11,,,0.23,Wunderground v.1.15,2013-06-08 04:06:00,
2013-06-08 00:11:00,64.6,64.0,29.82,ENE,68,0.0,-999.0,98,0.09,,,0.23,Wunderground v.1.15,2013-06-08 04:11:00,
2013-06-08 00:16:00,64.6,64.0,29.82,ENE,68,0.0,-999.0,98,0.09,,,0.23,Wunderground v.1.15,2013-06-08 04:16:00,
2013-06-08 00:21:00,64.6,64.0,29.82,ENE,68,0.0,-999.0,98,0.09,,,0.23,Wunderground v.1.15,2013-06-08 04:21:00,
2013-06-08 00:26:00,64.3,64.0,29.82,N/A,-737280,0.0,-999.0,99,0.10,,,0.23,Wunderground v.1.15,2013-06-08 04:26:00,
2013-06-08 00:31:00,64.3,64.0,29.82,N/A,-737280,0.0,-999.0,99,0.10,,,0.23,Wunderground v.1.15,2013-06-08 04:31:00,
2013-06-08 00:36:00,64.3,64.0,29.82,N/A,-737280,0.0,-999.0,99,0.10,,,0.23,Wunderground v.1.15,2013-06-08 04:36:00,
2013-06-08 00:41:00,64.1,64.1,29.83,N/A,-737280,0.0,-999.0,100,0.10,,,0.23,Wunderground v.1.15,2013-06-08 04:41:00,
2013-06-08 00:46:00,64.1,64.1,29.83,N/A,-737280,0.0,-999.0,100,0.10,,,0.23,Wunderground v.1.15,2013-06-08 04:46:00,
2013-06-08 00:51:00,64.1,64.1,29.83,N/A,-737280,0.0,-999.0,100,0.10,,,0.23,Wunderground v.1.15,2013-06-08 04:51:00,
2013-06-08 00:56:00,63.9,63.9,29.83,N/A,-737280,0.0,-999.0,100,0.10,,,0.23,Wunderground v.1.15,2013-06-08 04:56:00,
2013-06-08 01:01:00,63.9,63.9,29.83,N/A,-737280,0.0,-999.0,100,0.07,,,0.23,Wunderground v.1.15,2013-06-08 05:01:00,
2013-06-08 01:06:00,63.9,63.9,29.83,N/A,-737280,0.0,-999.0,100,0.07,,,0.23,Wunderground v.1.15,2013-06-08 05:06:00,
2013-06-08 01:11:00,63.8,63.8,29.83,ENE,68,0.0,-999.0,100,0.08,,,0.23,Wunderground v.1.15,2013-06-08 05:11:00,
2013-06-08 01:16:00,63.8,63.8,29.83,ENE,68,0.0,-999.0,100,0.08,,,0.23,Wunderground v.1.15,2013-06-08 05:16:00,
2013-06-08 01:21:00,63.8,63.8,29.83,ENE,68,0.0,-999.0,100,0.08,,,0.23,Wunderground v.1.15,2013-06-08 05:21:00,
2013-06-08 01:26:00,63.6,63.6,29.83,ENE,68,0.0,-999.0,100,0.07,,,0.23,Wunderground v.1.15,2013-06-08 05:26:00,
2013-06-08 01:31:00,63.6,63.6,29.83,ENE,68,0.0,-999.0,100,0.07,,,0.23,Wunderground v.1.15,2013-06-08 05:31:00,
2013-06-08 01:36:00,63.6,63.6,29.83,ENE,68,0.0,-999.0,100,0.07,,,0.23,Wunderground v.1.15,2013-06-08 05:36:00,
2013-06-08 01:41:00,63.6,63.6,29.83,N/A,-737280,0.0,-999.0,100,0.05,,,0.23,Wunderground v.1.15,2013-06-08 05:41:00,
2013-06-08 01:46:00,63.6,63.6,29.83,N/A,-737280,0.0,-999.0,100,0.05,,,0.23,Wunderground v.1.15,2013-06-08 05:46:00,
2013-06-08 01:51:00,63.6,63.6,29.83,N/A,-737280,0.0,-999.0,100,0.05,,,0.23,Wunderground v.1.15,2013-06-08 05:51:00,
2013-06-08 01:56:00,63.5,63.5,29.84,N/A,-737280,0.0,-999.0,100,0.04,,,0.23,Wunderground v.1.15,2013-06-08 05:56:00,
2013-06-08 02:01:00,63.5,63.5,29.84,N/A,-737280,0.0,-999.0,100,0.04,,,0.23,Wunderground v.1.15,2013-06-08 06:01:00,
2013-06-08 02:06:00,63.5,63.5,29.84,N/A,-737280,0.0,-999.0,100,0.04,,,0.23,Wunderground v.1.15,2013-06-08 06:06:00,
2013-06-08 02:11:00,63.4,63.4,29.83,N/A,-737280,0.0,-999.0,100,0.05,,,0.23,Wunderground v.1.15,2013-06-08 06:11:00,
2013-06-08 02:16:00,63.4,63.4,29.83,N/A,-737280,0.0,-999.0,100,0.05,,,0.23,Wunderground v.1.15,2013-06-08 06:16:00,
2013-06-08 02:21:00,63.4,63.4,29.83,N/A,-737280,0.0,-999.0,100,0.05,,,0.23,Wunderground v.1.15,2013-06-08 06:21:00,
2013-06-08 02:26:00,63.3,63.3,29.83,N/A,-737280,0.0,-999.0,100,0.07,,,0.23,Wunderground v.1.15,2013-06-08 06:26:00,
2013-06-08 02:31:00,63.3,63.3,29.83,N/A,-737280,0.0,-999.0,100,0.07,,,0.23,Wunderground v.1.15,2013-06-08 06:31:00,
2013-06-08 02:36:00,63.3,63.3,29.83,N/A,-737280,0.0,-999.0,100,0.07,,,0.23,Wunderground v.1.15,2013-06-08 06:36:00,
2013-06-08 02:41:00,63.3,63.3,29.83,N/A,-737280,0.0,-999.0,100,0.08,,,0.23,Wunderground v.1.15,2013-06-08 06:41:00,
2013-06-08 02:46:00,63.3,63.3,29.83,N/A,-737280,0.0,-999.0,100,0.08,,,0.23,Wunderground v.1.15,2013-06-08 06:46:00,
2013-06-08 02:51:00,63.3,63.3,29.83,N/A,-737280,0.0,-999.0,100,0.08,,,0.23,Wunderground v.1.15,2013-06-08 06:51:00,
2013-06-08 02:56:00,63.1,63.1,29.83,N/A,-737280,0.0,-999.0,100,0.08,,,0.23,Wunderground v.1.15,2013-06-08 06:56:00,
2013-06-08 03:01:00,63.1,63.1,29.83,N/A,-737280,0.0,-999.0,100,0.08,,,0.23,Wunderground v.1.15,2013-06-08 07:01:00,
2013-06-08 03:06:00,63.1,63.1,29.83,N/A,-737280,0.0,-999.0,100,0.08,,,0.23,Wunderground v.1.15,2013-06-08 07:06:00,
2013-06-08 03:11:00,62.9,62.9,29.83,N/A,-737280,0.0,-999.0,100,0.07,,,0.23,Wunderground v.1.15,2013-06-08 07:11:00,
2013-06-08 03:16:00,62.9,62.9,29.83,N/A,-737280,0.0,-999.0,100,0.07,,,0.23,Wunderground v.1.15,2013-06-08 07:16:00,
2013-06-08 03:21:00,62.9,62.9,29.83,N/A,-737280,0.0,-999.0,100,0.07,,,0.23,Wunderground v.1.15,2013-06-08 07:21:00,
2013-06-08 03:26:00,62.9,62.9,29.83,N/A,-737280,0.0,-999.0,100,0.04,,,0.23,Wunderground v.1.15,2013-06-08 07:26:00,
2013-06-08 03:31:00,62.9,62.9,29.83,N/A,-737280,0.0,-999.0,100,0.04,,,0.23,Wunderground v.1.15,2013-06-08 07:31:00,
2013-06-08 03:36:00,62.9,62.9,29.83,N/A,-737280,0.0,-999.0,100,0.04,,,0.23,Wunderground v.1.15,2013-06-08 07:36:00,
2013-06-08 03:41:00,62.9,62.9,29.84,N/A,-737280,0.0,-999.0,100,0.03,,,0.23,Wunderground v.1.15,2013-06-08 07:41:00,
2013-06-08 03:46:00,62.9,62.9,29.84,N/A,-737280,0.0,-999.0,100,0.03,,,0.23,Wunderground v.1.15,2013-06-08 07:46:00,
2013-06-08 03:51:00,62.9,62.9,29.84,N/A,-737280,0.0,-999.0,100,0.03,,,0.23,Wunderground v.1.15,2013-06-08 07:51:00,
2013-06-08 03:56:00,63.2,63.2,29.83,N/A,-737280,0.0,-999.0,100,0.01,,,0.23,Wunderground v.1.15,2013-06-08 07:56:00,
2013-06-08 04:01:00,63.2,63.2,29.83,N/A,-737280,0.0,-999.0,100,0.01,,,0.23,Wunderground v.1.15,2013-06-08 08:01:00,
2013-06-08 04:06:00,63.2,63.2,29.83,N/A,-737280,0.0,-999.0,100,0.01,,,0.23,Wunderground v.1.15,2013-06-08 08:06:00,
2013-06-08 04:11:00,63.1,63.1,29.84,N/A,-737280,0.0,-999.0,100,0.00,,,0.23,Wunderground v.1.15,2013-06-08 08:11:00,
2013-06-08 04:16:00,63.1,63.1,29.84,N/A,-737280,0.0,-999.0,100,0.00,,,0.23,Wunderground v.1.15,2013-06-08 08:16:00,
2013-06-08 04:21:00,63.1,63.1,29.84,N/A,-737280,0.0,-999.0,100,0.00,,,0.23,Wunderground v.1.15,2013-06-08 08:21:00,
2013-06-08 04:26:00,63.0,63.0,29.84,N/A,-737280,0.0,-999.0,100,0.00,,,0.23,Wunderground v.1.15,2013-06-08 08:26:00,
2013-06-08 04:31:00,63.0,63.0,29.84,N/A,-737280,0.0,-999.0,100,0.00,,,0.23,Wunderground v.1.15,2013-06-08 08:31:00,
2013-06-08 04:36:00,63.0,63.0,29.84,N/A,-737280,0.0,-999.0,100,0.00,,,0.23,Wunderground v.1.15,2013-06-08 08:36:00,
2013-06-08 04:41:00,62.7,62.7,29.83,N/A,-737280,0.0,-999.0,100,0.00,,,0.23,Wunderground v.1.15,2013-06-08 08:41:00,
2013-06-08 04:46:00,62.7,62.7,29.83,N/A,-737280,0.0,-999.0,100,0.00,,,0.23,Wunderground v.1.15,2013-06-08 08:46:00,
2013-06-08 04:51:00,62.7,62.7,29.83,N/A,-737280,0.0,-999.0,100,0.00,,,0.23,Wunderground v.1.15,2013-06-08 08:51:00,
2013-06-08 04:56:00,62.2,62.2,29.84,N/A,-737280,0.0,-999.0,100,0.00,,,0.23,Wunderground v.1.15,2013-06-08 08:56:00,
2013-06-08 05:01:00,62.2,62.2,29.84,N/A,-737280,0.0,-999.0,100,0.00,,,0.23,Wunderground v.1.15,2013-06-08 09:01:00,
2013-06-08 05:06:00,62.2,62.2,29.84,N/A,-737280,0.0,-999.0,100,0.00,,,0.23,Wunderground v.1.15,2013-06-08 09:06:00,
2013-06-08 05:11:00,61.9,61.9,29.85,N/A,-737280,0.0,-999.0,100,0.00,,,0.23,Wunderground v.1.15,2013-06-08 09:11:00,
2013-06-08 05:16:00,61.9,61.9,29.85,N/A,-737280,0.0,-999.0,100,0.00,,,0.23,Wunderground v.1.15,2013-06-08 09:16:00,
2013-06-08 05:21:00,61.9,61.9,29.85,N/A,-737280,0.0,-999.0,100,0.00,,,0.23,Wunderground v.1.15,2013-06-08 09:21:00,
2013-06-08 05:26:00,61.4,61.4,29.86,N/A,-737280,0.0,-999.0,100,0.00,,,0.23,Wunderground v.1.15,2013-06-08 09:26:00,
2013-06-08 05:31:00,61.4,61.4,29.86,N/A,-737280,0.0,-999.0,100,0.00,,,0.23,Wunderground v.1.15,2013-06-08 09:31:00,
2013-06-08 05:36:00,61.4,61.4,29.86,N/A,-737280,0.0,-999.0,100,0.00,,,0.23,Wunderground v.1.15,2013-06-08 09:36:00,
2013-06-08 05:41:00,60.8,60.8,29.86,N/A,-737280,0.0,-999.0,100,0.00,,,0.23,Wunderground v.1.15,2013-06-08 09:41:00,
2013-06-08 05:46:00,60.8,60.8,29.86,N/A,-737280,0.0,-999.0,100,0.00,,,0.23,Wunderground v.1.15,2013-06-08 09:46:00,
2013-06-08 05:51:00,60.8,60.8,29.86,N/A,-737280,0.0,-999.0,100,0.00,,,0.23,Wunderground v.1.15,2013-06-08 09:51:00,
2013-06-08 05:56:00,60.8,60.8,29.87,N/A,-737280,0.0,-999.0,100,0.00,,,0.23,Wunderground v.1.15,2013-06-08 09:56:00,
2013-06-08 06:01:00,60.8,60.8,29.87,N/A,-737280,0.0,-999.0,100,0.00,,,0.23,Wunderground v.1.15,2013-06-08 10:01:00,
2013-06-08 06:06:00,60.8,60.8,29.87,N/A,-737280,0.0,-999.0,100,0.00,,,0.23,Wunderground v.1.15,2013-06-08 10:06:00,
2013-06-08 06:11:00,60.8,60.8,29.88,N/A,-737280,0.0,-999.0,100,0.00,,,0.23,Wunderground v.1.15,2013-06-08 10:11:00,
2013-06-08 06:16:00,60.8,60.8,29.88,N/A,-737280,0.0,-999.0,100,0.00,,,0.23,Wunderground v.1.15,2013-06-08 10:16:00,
2013-06-08 06:21:00,60.8,60.8,29.88,N/A,-737280,0.0,-999.0,100,0.00,,,0.23,Wunderground v.1.15,2013-06-08 10:21:00,
2013-06-08 06:26:00,60.3,60.3,29.89,N/A,-737280,0.0,-999.0,100,0.00,,,0.23,Wunderground v.1.15,2013-06-08 10:26:00,
2013-06-08 06:31:00,60.3,60.3,29.89,N/A,-737280,0.0,-999.0,100,0.00,,,0.23,Wunderground v.1.15,2013-06-08 10:31:00,
2013-06-08 06:36:00,60.3,60.3,29.89,N/A,-737280,0.0,-999.0,100,0.00,,,0.23,Wunderground v.1.15,2013-06-08 10:36:00,
2013-06-08 06:41:00,60.1,60.1,29.89,N/A,-737280,0.0,-999.0,100,0.00,,,0.23,Wunderground v.1.15,2013-06-08 10:41:00,
2013-06-08 06:46:00,60.1,60.1,29.89,N/A,-737280,0.0,-999.0,100,0.00,,,0.23,Wunderground v.1.15,2013-06-08 10:46:00,
2013-06-08 06:51:00,60.1,60.1,29.89,N/A,-737280,0.0,-999.0,100,0.00,,,0.23,Wunderground v.1.15,2013-06-08 10:51:00,
2013-06-08 06:56:00,60.3,60.3,29.89,N/A,-737280,0.0,-999.0,100,0.00,,,0.23,Wunderground v.1.15,2013-06-08 10:56:00,
2013-06-08 07:01:00,60.3,60.3,29.89,N/A,-737280,0.0,-999.0,100,0.00,,,0.23,Wunderground v.1.15,2013-06-08 11:01:00,
2013-06-08 07:06:00,60.3,60.3,29.89,N/A,-737280,0.0,-999.0,100,0.00,,,0.23,Wunderground v.1.15,2013-06-08 11:06:00,
2013-06-08 07:11:00,61.0,61.0,29.90,N/A,-737280,0.0,-999.0,100,0.00,,,0.23,Wunderground v.1.15,2013-06-08 11:11:00,
2013-06-08 07:16:00,61.0,61.0,29.90,N/A,-737280,0.0,-999.0,100,0.00,,,0.23,Wunderground v.1.15,2013-06-08 11:16:00,
2013-06-08 07:21:00,61.0,61.0,29.90,N/A,-737280,0.0,-999.0,100,0.00,,,0.23,Wunderground v.1.15,2013-06-08 11:21:00,
2013-06-08 07:26:00,61.7,61.7,29.90,N/A,-737280,0.0,-999.0,100,0.00,,,0.23,Wunderground v.1.15,2013-06-08 11:26:00,
2013-06-08 07:31:00,61.7,61.7,29.90,N/A,-737280,0.0,-999.0,100,0.00,,,0.23,Wunderground v.1.15,2013-06-08 11:31:00,
2013-06-08 07:36:00,61.7,61.7,29.90,N/A,-737280,0.0,-999.0,100,0.00,,,0.23,Wunderground v.1.15,2013-06-08 11:36:00,
2013-06-08 07:41:00,61.9,61.9,29.91,N/A,-737280,0.0,-999.0,100,0.00,,,0.23,Wunderground v.1.15,2013-06-08 11:41:00,
2013-06-08 07:46:00,61.9,61.9,29.91,N/A,-737280,0.0,-999.0,100,0.00,,,0.23,Wunderground v.1.15,2013-06-08 11:46:00,
2013-06-08 07:51:00,61.9,61.9,29.91,N/A,-737280,0.0,-999.0,100,0.00,,,0.23,Wunderground v.1.15,2013-06-08 11:51:00,
2013-06-08 07:56:00,62.5,62.5,29.91,N/A,-737280,0.0,-999.0,100,0.00,,,0.23,Wunderground v.1.15,2013-06-08 11:56:00,
2013-06-08 08:01:00,62.5,62.5,29.91,N/A,-737280,0.0,-999.0,100,0.00,,,0.23,Wunderground v.1.15,2013-06-08 12:01:00,
2013-06-08 08:06:00,62.5,62.5,29.91,N/A,-737280,0.0,-999.0,100,0.00,,,0.23,Wunderground v.1.15,2013-06-08 12:06:00,
2013-06-08 08:11:00,62.7,62.7,29.92,N/A,-737280,0.0,-999.0,100,0.00,,,0.23,Wunderground v.1.15,2013-06-08 12:11:00,
2013-06-08 08:16:00,62.7,62.7,29.92,N/A,-737280,0.0,-999.0,100,0.00,,,0.23,Wunderground v.1.15,2013-06-08 12:16:00,
2013-06-08 08:21:00,62.7,62.7,29.92,N/A,-737280,0.0,-999.0,100,0.00,,,0.23,Wunderground v.1.15,2013-06-08 12:21:00,
2013-06-08 08:26:00,62.8,62.8,29.92,N/A,-737280,0.0,-999.0,100,0.00,,,0.23,Wunderground v.1.15,2013-06-08 12:26:00,
2013-06-08 08:31:00,62.8,62.8,29.92,N/A,-737280,0.0,-999.0,100,0.00,,,0.23,Wunderground v.1.15,2013-06-08 12:31:00,
2013-06-08 08:36:00,62.8,62.8,29.92,N/A,-737280,0.0,-999.0,100,0.00,,,0.23,Wunderground v.1.15,2013-06-08 12:36:00,
2013-06-08 08:41:00,62.9,62.9,29.93,N/A,-737280,0.0,-999.0,100,0.00,,,0.23,Wunderground v.1.15,2013-06-08 12:41:00,
2013-06-08 08:46:00,62.9,62.9,29.93,N/A,-737280,0.0,-999.0,100,0.00,,,0.23,Wunderground v.1.15,2013-06-08 12:46:00,
2013-06-08 08:51:00,62.9,62.9,29.93,N/A,-737280,0.0,-999.0,100,0.00,,,0.23,Wunderground v.1.15,2013-06-08 12:51:00,
2013-06-08 08:56:00,63.6,63.6,29.93,ENE,68,0.0,-999.0,100,0.00,,,0.23,Wunderground v.1.15,2013-06-08 12:56:00,
2013-06-08 09:01:00,63.6,63.6,29.93,ENE,68,0.0,-999.0,100,0.00,,,0.23,Wunderground v.1.15,2013-06-08 13:01:00,
2013-06-08 09:06:00,63.6,63.6,29.93,ENE,68,0.0,-999.0,100,0.00,,,0.23,Wunderground v.1.15,2013-06-08 13:06:00,
2013-06-08 09:11:00,63.8,63.8,29.94,ENE,68,0.0,-999.0,100,0.00,,,0.23,Wunderground v.1.15,2013-06-08 13:11:00,
2013-06-08 09:16:00,63.8,63.8,29.94,ENE,68,0.0,-999.0,100,0.00,,,0.23,Wunderground v.1.15,2013-06-08 13:16:00,
2013-06-08 09:21:00,63.8,63.8,29.94,ENE,68,0.0,-999.0,100,0.00,,,0.23,Wunderground v.1.15,2013-06-08 13:21:00,
2013-06-08 09:26:00,64.3,64.3,29.95,East,90,0.0,-999.0,100,0.00,,,0.23,Wunderground v.1.15,2013-06-08 13:26:00,
2013-06-08 09:31:00,64.3,64.3,29.95,East,90,0.0,-999.0,100,0.00,,,0.23,Wunderground v.1.15,2013-06-08 13:31:00,
2013-06-08 09:36:00,64.3,64.3,29.95,East,90,0.0,-999.0,100,0.00,,,0.23,Wunderground v.1.15,2013-06-08 13:36:00,
2013-06-08 09:41:00,64.8,64.2,29.96,East,90,0.0,-999.0,98,0.00,,,0.23,Wunderground v.1.15,2013-06-08 13:41:00,
2013-06-08 09:46:00,64.8,64.2,29.96,East,90,0.0,-999.0,98,0.00,,,0.23,Wunderground v.1.15,2013-06-08 13:46:00,
2013-06-08 09:51:00,64.8,64.2,29.96,East,90,0.0,-999.0,98,0.00,,,0.23,Wunderground v.1.15,2013-06-08 13:51:00,
2013-06-08 09:56:00,65.7,63.6,29.95,East,90,0.0,-999.0,93,0.00,,,0.23,Wunderground v.1.15,2013-06-08 13:56:00,
2013-06-08 10:01:00,65.7,63.6,29.95,East,90,0.0,-999.0,93,0.00,,,0.23,Wunderground v.1.15,2013-06-08 14:01:00,
2013-06-08 10:06:00,65.7,63.6,29.95,East,90,0.0,-999.0,93,0.00,,,0.23,Wunderground v.1.15,2013-06-08 14:06:00,
2013-06-08 10:11:00,66.4,63.7,29.96,SSE,158,0.0,-999.0,91,0.00,,,0.23,Wunderground v.1.15,2013-06-08 14:11:00,
2013-06-08 10:16:00,66.4,63.7,29.96,SSE,158,0.0,-999.0,91,0.00,,,0.23,Wunderground v.1.15,2013-06-08 14:16:00,
2013-06-08 10:21:00,66.4,63.7,29.96,SSE,158,0.0,-999.0,91,0.00,,,0.23,Wunderground v.1.15,2013-06-08 14:21:00,
2013-06-08 10:26:00,68.3,64.6,29.96,SSE,158,1.0,-999.0,88,0.00,,,0.23,Wunderground v.1.15,2013-06-08 14:26:00,
2013-06-08 10:31:00,68.3,64.6,29.96,SSE,158,1.0,-999.0,88,0.00,,,0.23,Wunderground v.1.15,2013-06-08 14:31:00,
2013-06-08 10:36:00,68.3,64.6,29.96,SSE,158,1.0,-999.0,88,0.00,,,0.23,Wunderground v.1.15,2013-06-08 14:36:00,
2013-06-08 10:41:00,68.5,64.1,29.97,SE,135,0.0,-999.0,86,0.00,,,0.23,Wunderground v.1.15,2013-06-08 14:41:00,
2013-06-08 10:46:00,68.5,64.1,29.97,SE,135,0.0,-999.0,86,0.00,,,0.23,Wunderground v.1.15,2013-06-08 14:46:00,
2013-06-08 10:51:00,68.5,64.1,29.97,SE,135,0.0,-999.0,86,0.00,,,0.23,Wunderground v.1.15,2013-06-08 14:51:00,
2013-06-08 10:56:00,67.9,63.6,29.97,SE,135,0.0,-999.0,86,0.00,,,0.23,Wunderground v.1.15,2013-06-08 14:56:00,
2013-06-08 11:01:00,67.9,63.6,29.97,SE,135,0.0,-999.0,86,0.00,,,0.23,Wunderground v.1.15,2013-06-08 15:01:00,
2013-06-08 11:06:00,67.9,63.6,29.97,SE,135,0.0,-999.0,86,0.00,,,0.23,Wunderground v.1.15,2013-06-08 15:06:00,
2013-06-08 11:11:00,68.6,63.6,29.97,SSE,158,1.0,-999.0,84,0.00,,,0.23,Wunderground v.1.15,2013-06-08 15:11:00,
2013-06-08 11:16:00,68.6,63.6,29.97,SSE,158,1.0,-999.0,84,0.00,,,0.23,Wunderground v.1.15,2013-06-08 15:16:00,
2013-06-08 11:21:00,68.6,63.6,29.97,SSE,158,1.0,-999.0,84,0.00,,,0.23,Wunderground v.1.15,2013-06-08 15:21:00,
2013-06-08 11:26:00,68.8,64.1,29.98,South,180,1.0,-999.0,85,0.00,,,0.23,Wunderground v.1.15,2013-06-08 15:26:00,
2013-06-08 11:31:00,68.8,64.1,29.98,South,180,1.0,-999.0,85,0.00,,,0.23,Wunderground v.1.15,2013-06-08 15:31:00,
2013-06-08 11:36:00,68.8,64.1,29.98,South,180,1.0,-999.0,85,0.00,,,0.23,Wunderground v.1.15,2013-06-08 15:36:00,
2013-06-08 11:41:00,69.9,64.5,29.98,South,180,1.0,-999.0,83,0.00,,,0.23,Wunderground v.1.15,2013-06-08 15:41:00,
2013-06-08 11:46:00,69.9,64.5,29.98,South,180,1.0,-999.0,83,0.00,,,0.23,Wunderground v.1.15,2013-06-08 15:46:00,
2013-06-08 11:51:00,69.9,64.5,29.98,South,180,1.0,-999.0,83,0.00,,,0.23,Wunderground v.1.15,2013-06-08 15:51:00,
2013-06-08 11:56:00,70.9,65.1,29.98,South,180,2.0,-999.0,82,0.00,,,0.23,Wunderground v.1.15,2013-06-08 15:56:00,
2013-06-08 12:01:00,70.9,65.1,29.98,South,180,2.0,-999.0,82,0.00,,,0.23,Wunderground v.1.15,2013-06-08 16:01:00,
2013-06-08 12:06:00,70.9,65.1,29.98,South,180,2.0,-999.0,82,0.00,,,0.23,Wunderground v.1.15,2013-06-08 16:06:00,
2013-06-08 12:11:00,72.0,64.4,29.97,SSW,203,1.0,-999.0,77,0.00,,,0.23,Wunderground v.1.15,2013-06-08 16:11:00,
2013-06-08 12:16:00,72.0,64.4,29.97,SSW,203,1.0,-999.0,77,0.00,,,0.23,Wunderground v.1.15,2013-06-08 16:16:00,
2013-06-08 12:21:00,72.0,64.4,29.97,SSW,203,1.0,-999.0,77,0.00,,,0.23,Wunderground v.1.15,2013-06-08 16:21:00,
2013-06-08 12:26:00,72.5,65.6,29.97,SSE,158,1.0,-999.0,79,0.00,,,0.23,Wunderground v.1.15,2013-06-08 16:26:00,
2013-06-08 12:31:00,72.5,65.6,29.97,SSE,158,1.0,-999.0,79,0.00,,,0.23,Wunderground v.1.15,2013-06-08 16:31:00,
2013-06-08 12:36:00,72.5,65.6,29.97,SSE,158,1.0,-999.0,79,0.00,,,0.23,Wunderground v.1.15,2013-06-08 16:36:00,
2013-06-08 12:41:00,72.2,64.2,29.98,South,180,1.0,-999.0,76,0.00,,,0.23,Wunderground v.1.15,2013-06-08 16:41:00,
2013-06-08 12:46:00,72.2,64.2,29.98,South,180,1.0,-999.0,76,0.00,,,0.23,Wunderground v.1.15,2013-06-08 16:46:00,
2013-06-08 12:51:00,72.2,64.2,29.98,South,180,1.0,-999.0,76,0.00,,,0.23,Wunderground v.1.15,2013-06-08 16:51:00,
2013-06-08 12:56:00,72.2,65.0,29.97,SSW,203,2.0,-999.0,78,0.00,,,0.23,Wunderground v.1.15,2013-06-08 16:56:00,
2013-06-08 13:01:00,72.2,65.0,29.97,SSW,203,2.0,-999.0,78,0.00,,,0.23,Wunderground v.1.15,2013-06-08 17:01:00,
2013-06-08 13:06:00,72.2,65.0,29.97,SSW,203,2.0,-999.0,78,0.00,,,0.23,Wunderground v.1.15,2013-06-08 17:06:00,
2013-06-08 13:11:00,71.8,66.4,29.97,SSW,203,0.0,-999.0,83,0.00,,,0.23,Wunderground v.1.15,2013-06-08 17:11:00,
2013-06-08 13:16:00,71.8,66.4,29.97,SSW,203,0.0,-999.0,83,0.00,,,0.23,Wunderground v.1.15,2013-06-08 17:16:00,
2013-06-08 13:21:00,71.8,66.4,29.97,SSW,203,0.0,-999.0,83,0.00,,,0.23,Wunderground v.1.15,2013-06-08 17:21:00,
2013-06-08 13:26:00,72.6,66.4,29.97,South,180,1.0,-999.0,81,0.00,,,0.23,Wunderground v.1.15,2013-06-08 17:26:00,
2013-06-08 13:31:00,72.6,66.4,29.97,South,180,1.0,-999.0,81,0.00,,,0.23,Wunderground v.1.15,2013-06-08 17:31:00,
2013-06-08 13:36:00,72.6,66.4,29.97,South,180,1.0,-999.0,81,0.00,,,0.23,Wunderground v.1.15,2013-06-08 17:36:00,
2013-06-08 13:41:00,73.7,67.5,29.97,SSE,158,1.0,-999.0,81,0.00,,,0.23,Wunderground v.1.15,2013-06-08 17:41:00,
2013-06-08 13:46:00,73.7,67.5,29.97,SSE,158,1.0,-999.0,81,0.00,,,0.23,Wunderground v.1.15,2013-06-08 17:46:00,
2013-06-08 13:51:00,73.7,67.5,29.97,SSE,158,1.0,-999.0,81,0.00,,,0.23,Wunderground v.1.15,2013-06-08 17:51:00,
2013-06-08 13:56:00,73.0,65.4,29.97,South,180,1.0,-999.0,77,0.00,,,0.23,Wunderground v.1.15,2013-06-08 17:56:00,
2013-06-08 14:01:00,73.0,65.4,29.97,South,180,1.0,-999.0,77,0.00,,,0.23,Wunderground v.1.15,2013-06-08 18:01:00,
2013-06-08 14:06:00,73.0,65.4,29.97,South,180,1.0,-999.0,77,0.00,,,0.23,Wunderground v.1.15,2013-06-08 18:06:00,
2013-06-08 14:11:00,73.8,65.0,29.96,SSW,203,1.0,-999.0,74,0.00,,,0.23,Wunderground v.1.15,2013-06-08 18:11:00,
2013-06-08 14:16:00,73.8,65.0,29.96,SSW,203,1.0,-999.0,74,0.00,,,0.23,Wunderground v.1.15,2013-06-08 18:16:00,
2013-06-08 14:21:00,73.8,65.0,29.96,SSW,203,1.0,-999.0,74,0.00,,,0.23,Wunderground v.1.15,2013-06-08 18:21:00,
2013-06-08 14:26:00,75.8,64.9,29.96,SSW,203,2.0,-999.0,69,0.00,,,0.23,Wunderground v.1.15,2013-06-08 18:26:00,
2013-06-08 14:31:00,75.8,64.9,29.96,SSW,203,2.0,-999.0,69,0.00,,,0.23,Wunderground v.1.15,2013-06-08 18:31:00,
2013-06-08 14:36:00,75.8,64.9,29.96,SSW,203,2.0,-999.0,69,0.00,,,0.23,Wunderground v.1.15,2013-06-08 18:36:00,
2013-06-08 14:41:00,76.6,64.4,29.95,SSE,158,3.0,-999.0,66,0.00,,,0.23,Wunderground v.1.15,2013-06-08 18:41:00,
2013-06-08 14:46:00,76.6,64.4,29.95,SSE,158,3.0,-999.0,66,0.00,,,0.23,Wunderground v.1.15,2013-06-08 18:46:00,
2013-06-08 14:51:00,76.6,64.4,29.95,SSE,158,3.0,-999.0,66,0.00,,,0.23,Wunderground v.1.15,2013-06-08 18:51:00,
2013-06-08 14:56:00,76.5,63.4,29.95,SW,225,1.0,-999.0,64,0.00,,,0.23,Wunderground v.1.15,2013-06-08 18:56:00,
2013-06-08 15:01:00,76.5,63.4,29.95,SW,225,1.0,-999.0,64,0.00,,,0.23,Wunderground v.1.15,2013-06-08 19:01:00,
2013-06-08 15:06:00,76.5,63.4,29.95,SW,225,1.0,-999.0,64,0.00,,,0.23,Wunderground v.1.15,2013-06-08 19:06:00,
2013-06-08 15:11:00,76.6,64.8,29.95,SSW,203,2.0,-999.0,67,0.00,,,0.23,Wunderground v.1.15,2013-06-08 19:11:00,
2013-06-08 15:16:00,76.6,64.8,29.95,SSW,203,2.0,-999.0,67,0.00,,,0.23,Wunderground v.1.15,2013-06-08 19:16:00,
2013-06-08 15:21:00,76.6,64.8,29.95,SSW,203,2.0,-999.0,67,0.00,,,0.23,Wunderground v.1.15,2013-06-08 19:21:00,
2013-06-08 15:26:00,76.6,64.4,29.95,SSW,203,1.0,-999.0,66,0.00,,,0.23,Wunderground v.1.15,2013-06-08 19:26:00,
2013-06-08 15:31:00,76.6,64.4,29.95,SSW,203,1.0,-999.0,66,0.00,,,0.23,Wunderground v.1.15,2013-06-08 19:31:00,
2013-06-08 15:36:00,76.6,64.4,29.95,SSW,203,1.0,-999.0,66,0.00,,,0.23,Wunderground v.1.15,2013-06-08 19:36:00,
2013-06-08 15:41:00,77.9,63.8,29.94,ENE,68,1.0,-999.0,62,0.00,,,0.23,Wunderground v.1.15,2013-06-08 19:41:00,
2013-06-08 15:46:00,77.9,63.8,29.94,ENE,68,1.0,-999.0,62,0.00,,,0.23,Wunderground v.1.15,2013-06-08 19:46:00,
2013-06-08 15:51:00,77.9,63.8,29.94,ENE,68,1.0,-999.0,62,0.00,,,0.23,Wunderground v.1.15,2013-06-08 19:51:00,
2013-06-08 15:56:00,77.1,64.9,29.94,SSW,203,1.0,-999.0,66,0.00,,,0.23,Wunderground v.1.15,2013-06-08 19:56:00,
2013-06-08 16:01:00,77.1,64.9,29.94,SSW,203,1.0,-999.0,66,0.00,,,0.23,Wunderground v.1.15,2013-06-08 20:01:00,
2013-06-08 16:06:00,77.1,64.9,29.94,SSW,203,1.0,-999.0,66,0.00,,,0.23,Wunderground v.1.15,2013-06-08 20:06:00,
2013-06-08 16:11:00,77.7,64.5,29.94,SSW,203,1.0,-999.0,64,0.00,,,0.23,Wunderground v.1.15,2013-06-08 20:11:00,
2013-06-08 16:16:00,77.7,64.5,29.94,SSW,203,1.0,-999.0,64,0.00,,,0.23,Wunderground v.1.15,2013-06-08 20:16:00,
2013-06-08 16:21:00,77.7,64.5,29.94,SSW,203,1.0,-999.0,64,0.00,,,0.23,Wunderground v.1.15,2013-06-08 20:21:00,
2013-06-08 16:26:00,77.1,64.4,29.95,SW,225,0.0,-999.0,65,0.00,,,0.23,Wunderground v.1.15,2013-06-08 20:26:00,
2013-06-08 16:31:00,77.1,64.4,29.95,SW,225,0.0,-999.0,65,0.00,,,0.23,Wunderground v.1.15,2013-06-08 20:31:00,
2013-06-08 16:36:00,77.1,64.4,29.95,SW,225,0.0,-999.0,65,0.00,,,0.23,Wunderground v.1.15,2013-06-08 20:36:00,
2013-06-08 16:41:00,77.4,64.3,29.94,ESE,113,0.0,-999.0,64,0.00,,,0.23,Wunderground v.1.15,2013-06-08 20:41:00,
2013-06-08 16:46:00,77.4,64.3,29.94,ESE,113,0.0,-999.0,64,0.00,,,0.23,Wunderground v.1.15,2013-06-08 20:46:00,
2013-06-08 16:51:00,77.4,64.3,29.94,ESE,113,0.0,-999.0,64,0.00,,,0.23,Wunderground v.1.15,2013-06-08 20:51:00,
2013-06-08 16:56:00,77.6,63.5,29.94,SSW,203,1.0,-999.0,62,0.00,,,0.23,Wunderground v.1.15,2013-06-08 20:56:00,
2013-06-08 17:01:00,77.6,63.5,29.94,SSW,203,1.0,-999.0,62,0.00,,,0.23,Wunderground v.1.15,2013-06-08 21:01:00,
2013-06-08 17:06:00,77.6,63.5,29.94,SSW,203,1.0,-999.0,62,0.00,,,0.23,Wunderground v.1.15,2013-06-08 21:06:00,
2013-06-08 17:11:00,77.0,66.0,29.95,SSE,158,1.0,-999.0,69,0.00,,,0.23,Wunderground v.1.15,2013-06-08 21:11:00,
2013-06-08 17:16:00,77.0,66.0,29.95,SSE,158,1.0,-999.0,69,0.00,,,0.23,Wunderground v.1.15,2013-06-08 21:16:00,
2013-06-08 17:21:00,77.0,66.0,29.95,SSE,158,1.0,-999.0,69,0.00,,,0.23,Wunderground v.1.15,2013-06-08 21:21:00,
2013-06-08 17:26:00,76.6,63.5,29.94,South,180,0.0,-999.0,64,0.00,,,0.23,Wunderground v.1.15,2013-06-08 21:26:00,
2013-06-08 17:31:00,76.6,63.5,29.94,South,180,0.0,-999.0,64,0.00,,,0.23,Wunderground v.1.15,2013-06-08 21:31:00,
2013-06-08 17:36:00,76.6,63.5,29.94,South,180,0.0,-999.0,64,0.00,,,0.23,Wunderground v.1.15,2013-06-08 21:36:00,
2013-06-08 17:41:00,76.8,64.1,29.95,SSW,203,1.0,-999.0,65,0.00,,,0.23,Wunderground v.1.15,2013-06-08 21:41:00,
2013-06-08 17:46:00,76.8,64.1,29.95,SSW,203,1.0,-999.0,65,0.00,,,0.23,Wunderground v.1.15,2013-06-08 21:46:00,
2013-06-08 17:51:00,76.8,64.1,29.95,SSW,203,1.0,-999.0,65,0.00,,,0.23,Wunderground v.1.15,2013-06-08 21:51:00,
2013-06-08 17:56:00,76.0,61.6,29.95,SSW,203,0.0,-999.0,61,0.00,,,0.23,Wunderground v.1.15,2013-06-08 21:56:00,
2013-06-08 18:01:00,76.0,61.6,29.95,SSW,203,0.0,-999.0,61,0.00,,,0.23,Wunderground v.1.15,2013-06-08 22:01:00,
2013-06-08 18:06:00,76.0,61.6,29.95,SSW,203,0.0,-999.0,61,0.00,,,0.23,Wunderground v.1.15,2013-06-08 22:06:00,
2013-06-08 18:11:00,76.5,62.0,29.95,SSW,203,1.0,-999.0,61,0.00,,,0.23,Wunderground v.1.15,2013-06-08 22:11:00,
2013-06-08 18:16:00,76.5,62.0,29.95,SSW,203,1.0,-999.0,61,0.00,,,0.23,Wunderground v.1.15,2013-06-08 22:16:00,
2013-06-08 18:21:00,76.5,62.0,29.95,SSW,203,1.0,-999.0,61,0.00,,,0.23,Wunderground v.1.15,2013-06-08 22:21:00,
2013-06-08 18:26:00,76.1,62.1,29.95,SW,225,0.0,-999.0,62,0.00,,,0.23,Wunderground v.1.15,2013-06-08 22:26:00,
2013-06-08 18:31:00,76.1,62.1,29.95,SW,225,0.0,-999.0,62,0.00,,,0.23,Wunderground v.1.15,2013-06-08 22:31:00,
2013-06-08 18:36:00,76.1,62.1,29.95,SW,225,0.0,-999.0,62,0.00,,,0.23,Wunderground v.1.15,2013-06-08 22:36:00,
2013-06-08 18:41:00,75.6,62.1,29.95,SW,225,0.0,-999.0,63,0.00,,,0.23,Wunderground v.1.15,2013-06-08 22:41:00,
2013-06-08 18:46:00,75.6,62.1,29.95,SW,225,0.0,-999.0,63,0.00,,,0.23,Wunderground v.1.15,2013-06-08 22:46:00,
2013-06-08 18:51:00,75.6,62.1,29.95,SW,225,0.0,-999.0,63,0.00,,,0.23,Wunderground v.1.15,2013-06-08 22:51:00,
2013-06-08 18:56:00,74.4,65.6,29.95,SW,225,0.0,-999.0,74,0.00,,,0.23,Wunderground v.1.15,2013-06-08 22:56:00,
2013-06-08 19:01:00,74.4,65.6,29.95,SW,225,0.0,-999.0,74,0.00,,,0.23,Wunderground v.1.15,2013-06-08 23:01:00,
2013-06-08 19:06:00,74.4,65.6,29.95,SW,225,0.0,-999.0,74,0.00,,,0.23,Wunderground v.1.15,2013-06-08 23:06:00,
2013-06-08 19:11:00,73.7,66.0,29.95,SSW,203,0.0,-999.0,77,0.00,,,0.23,Wunderground v.1.15,2013-06-08 23:11:00,
2013-06-08 19:16:00,73.7,66.0,29.95,SSW,203,0.0,-999.0,77,0.00,,,0.23,Wunderground v.1.15,2013-06-08 23:16:00,
2013-06-08 19:21:00,73.7,66.0,29.95,SSW,203,0.0,-999.0,77,0.00,,,0.23,Wunderground v.1.15,2013-06-08 23:21:00,
2013-06-08 19:26:00,73.4,67.2,29.96,N/A,-737280,0.0,-999.0,81,0.00,,,0.23,Wunderground v.1.15,2013-06-08 23:26:00,
2013-06-08 19:31:00,73.4,67.2,29.96,N/A,-737280,0.0,-999.0,81,0.00,,,0.23,Wunderground v.1.15,2013-06-08 23:31:00,
2013-06-08 19:36:00,73.4,67.2,29.96,N/A,-737280,0.0,-999.0,81,0.00,,,0.23,Wunderground v.1.15,2013-06-08 23:36:00,
2013-06-08 19:41:00,72.5,66.3,29.97,N/A,-737280,0.0,-999.0,81,0.00,,,0.23,Wunderground v.1.15,2013-06-08 23:41:00,
2013-06-08 19:46:00,72.5,66.3,29.97,N/A,-737280,0.0,-999.0,81,0.00,,,0.23,Wunderground v.1.15,2013-06-08 23:46:00,
2013-06-08 19:51:00,72.5,66.3,29.97,N/A,-737280,0.0,-999.0,81,0.00,,,0.23,Wunderground v.1.15,2013-06-08 23:51:00,
2013-06-08 19:56:00,71.7,66.3,29.97,SSW,203,0.0,-999.0,83,0.00,,,0.23,Wunderground v.1.15,2013-06-08 23:56:00,
2013-06-08 20:01:00,71.7,66.3,29.97,SSW,203,0.0,-999.0,83,0.00,,,0.23,Wunderground v.1.15,2013-06-09 00:01:00,
2013-06-08 20:06:00,71.7,66.3,29.97,SSW,203,0.0,-999.0,83,0.00,,,0.23,Wunderground v.1.15,2013-06-09 00:06:00,
2013-06-08 20:11:00,71.0,65.9,29.97,N/A,-737280,0.0,-999.0,84,0.00,,,0.23,Wunderground v.1.15,2013-06-09 00:11:00,
2013-06-08 20:16:00,71.0,65.9,29.97,N/A,-737280,0.0,-999.0,84,0.00,,,0.23,Wunderground v.1.15,2013-06-09 00:16:00,
2013-06-08 20:21:00,71.0,65.9,29.97,N/A,-737280,0.0,-999.0,84,0.00,,,0.23,Wunderground v.1.15,2013-06-09 00:21:00,
2013-06-08 20:26:00,70.3,66.9,29.99,N/A,-737280,0.0,-999.0,89,0.00,,,0.23,Wunderground v.1.15,2013-06-09 00:26:00,
2013-06-08 20:31:00,70.3,66.9,29.99,N/A,-737280,0.0,-999.0,89,0.00,,,0.23,Wunderground v.1.15,2013-06-09 00:31:00,
2013-06-08 20:36:00,70.3,66.9,29.99,N/A,-737280,0.0,-999.0,89,0.00,,,0.23,Wunderground v.1.15,2013-06-09 00:36:00,
2013-06-08 20:41:00,69.3,65.9,29.99,N/A,-737280,0.0,-999.0,89,0.00,,,0.23,Wunderground v.1.15,2013-06-09 00:41:00,
2013-06-08 20:46:00,69.3,65.9,29.99,N/A,-737280,0.0,-999.0,89,0.00,,,0.23,Wunderground v.1.15,2013-06-09 00:46:00,
2013-06-08 20:51:00,69.3,65.9,29.99,N/A,-737280,0.0,-999.0,89,0.00,,,0.23,Wunderground v.1.15,2013-06-09 00:51:00,
2013-06-08 20:56:00,68.8,66.4,30.00,N/A,-737280,0.0,-999.0,92,0.00,,,0.23,Wunderground v.1.15,2013-06-09 00:56:00,
2013-06-08 21:01:00,68.8,66.4,30.00,N/A,-737280,0.0,-999.0,92,0.00,,,0.23,Wunderground v.1.15,2013-06-09 01:01:00,
2013-06-08 21:06:00,68.8,66.4,30.00,N/A,-737280,0.0,-999.0,92,0.00,,,0.23,Wunderground v.1.15,2013-06-09 01:06:00,
2013-06-08 21:11:00,67.9,65.8,30.00,N/A,-737280,0.0,-999.0,93,0.00,,,0.23,Wunderground v.1.15,2013-06-09 01:11:00,
2013-06-08 21:16:00,67.9,65.8,30.00,N/A,-737280,0.0,-999.0,93,0.00,,,0.23,Wunderground v.1.15,2013-06-09 01:16:00,
2013-06-08 21:21:00,67.9,65.8,30.00,N/A,-737280,0.0,-999.0,93,0.00,,,0.23,Wunderground v.1.15,2013-06-09 01:21:00,
2013-06-08 21:26:00,67.1,65.3,30.00,N/A,-737280,0.0,-999.0,94,0.00,,,0.23,Wunderground v.1.15,2013-06-09 01:26:00,
2013-06-08 21:31:00,67.1,65.3,30.00,N/A,-737280,0.0,-999.0,94,0.00,,,0.23,Wunderground v.1.15,2013-06-09 01:31:00,
2013-06-08 21:36:00,67.1,65.3,30.00,N/A,-737280,0.0,-999.0,94,0.00,,,0.23,Wunderground v.1.15,2013-06-09 01:36:00,
2013-06-08 21:41:00,66.5,64.7,30.01,N/A,-737280,0.0,-999.0,94,0.00,,,0.23,Wunderground v.1.15,2013-06-09 01:41:00,
2013-06-08 21:46:00,66.5,64.7,30.01,N/A,-737280,0.0,-999.0,94,0.00,,,0.23,Wunderground v.1.15,2013-06-09 01:46:00,
2013-06-08 21:51:00,66.5,64.7,30.01,N/A,-737280,0.0,-999.0,94,0.00,,,0.23,Wunderground v.1.15,2013-06-09 01:51:00,
2013-06-08 21:56:00,65.9,64.4,30.02,N/A,-737280,0.0,-999.0,95,0.00,,,0.23,Wunderground v.1.15,2013-06-09 01:56:00,
2013-06-08 22:01:00,65.9,64.4,30.02,N/A,-737280,0.0,-999.0,95,0.00,,,0.23,Wunderground v.1.15,2013-06-09 02:01:00,
2013-06-08 22:06:00,65.9,64.4,30.02,N/A,-737280,0.0,-999.0,95,0.00,,,0.23,Wunderground v.1.15,2013-06-09 02:06:00,
2013-06-08 22:11:00,65.5,64.3,30.02,N/A,-737280,0.0,-999.0,96,0.00,,,0.23,Wunderground v.1.15,2013-06-09 02:11:00,
2013-06-08 22:16:00,65.5,64.3,30.02,N/A,-737280,0.0,-999.0,96,0.00,,,0.23,Wunderground v.1.15,2013-06-09 02:16:00,
2013-06-08 22:21:00,65.5,64.3,30.02,N/A,-737280,0.0,-999.0,96,0.00,,,0.23,Wunderground v.1.15,2013-06-09 02:21:00,
2013-06-08 22:26:00,65.1,64.2,30.04,N/A,-737280,0.0,-999.0,97,0.00,,,0.23,Wunderground v.1.15,2013-06-09 02:26:00,
2013-06-08 22:31:00,65.1,64.2,30.04,N/A,-737280,0.0,-999.0,97,0.00,,,0.23,Wunderground v.1.15,2013-06-09 02:31:00,
2013-06-08 22:36:00,65.1,64.2,30.04,N/A,-737280,0.0,-999.0,97,0.00,,,0.23,Wunderground v.1.15,2013-06-09 02:36:00,
2013-06-08 22:41:00,64.9,64.0,30.04,N/A,-737280,0.0,-999.0,97,0.00,,,0.23,Wunderground v.1.15,2013-06-09 02:41:00,
2013-06-08 22:46:00,64.9,64.0,30.04,N/A,-737280,0.0,-999.0,97,0.00,,,0.23,Wunderground v.1.15,2013-06-09 02:46:00,
2013-06-08 22:51:00,64.9,64.0,30.04,N/A,-737280,0.0,-999.0,97,0.00,,,0.23,Wunderground v.1.15,2013-06-09 02:51:00,
2013-06-08 22:56:00,64.7,63.8,30.04,N/A,-737280,0.0,-999.0,97,0.00,,,0.23,Wunderground v.1.15,2013-06-09 02:56:00,
2013-06-08 23:01:00,64.7,63.8,30.04,N/A,-737280,0.0,-999.0,97,0.00,,,0.23,Wunderground v.1.15,2013-06-09 03:01:00,
2013-06-08 23:06:00,64.7,63.8,30.04,N/A,-737280,0.0,-999.0,97,0.00,,,0.23,Wunderground v.1.15,2013-06-09 03:06:00,
2013-06-08 23:11:00,64.4,63.8,30.04,N/A,-737280,0.0,-999.0,98,0.00,,,0.23,Wunderground v.1.15,2013-06-09 03:11:00,
2013-06-08 23:16:00,64.4,63.8,30.04,N/A,-737280,0.0,-999.0,98,0.00,,,0.23,Wunderground v.1.15,2013-06-09 03:16:00,
2013-06-08 23:21:00,64.4,63.8,30.04,N/A,-737280,0.0,-999.0,98,0.00,,,0.23,Wunderground v.1.15,2013-06-09 03:21:00,
2013-06-08 23:26:00,64.2,63.6,30.05,SW,225,0.0,-999.0,98,0.00,,,0.23,Wunderground v.1.15,2013-06-09 03:26:00,
2013-06-08 23:31:00,64.2,63.6,30.05,SW,225,0.0,-999.0,98,0.00,,,0.23,Wunderground v.1.15,2013-06-09 03:31:00,
2013-06-08 23:36:00,64.2,63.6,30.05,SW,225,0.0,-999.0,98,0.00,,,0.23,Wunderground v.1.15,2013-06-09 03:36:00,
2013-06-08 23:41:00,64.1,63.5,30.05,SW,225,0.0,-999.0,98,0.00,,,0.23,Wunderground v.1.15,2013-06-09 03:41:00,
2013-06-08 23:46:00,64.1,63.5,30.05,SW,225,0.0,-999.0,98,0.00,,,0.23,Wunderground v.1.15,2013-06-09 03:46:00,
2013-06-08 23:51:00,64.1,63.5,30.05,SW,225,0.0,-999.0,98,0.00,,,0.23,Wunderground v.1.15,2013-06-09 03:51:00,
2013-06-08 23:56:00,63.7,63.1,30.04,WSW,248,0.0,-999.0,98,0.00,,,0.23,Wunderground v.1.15,2013-06-09 03:56:00,